createdAt,value
2023-02-13T00:00:22.402Z,31.98
2023-02-13T00:02:49.364Z,28.27
2023-02-13T00:05:16.119Z,32.28
2023-02-13T00:07:42.828Z,29.90
2023-02-13T00:10:09.941Z,30.52
2023-02-13T00:12:36.805Z,32.15
2023-02-13T00:15:04.672Z,27.80
2023-02-13T00:17:32.828Z,31.95
2023-02-13T00:19:59.837Z,26.45
2023-02-13T00:22:26.794Z,28.48
2023-02-13T00:24:53.569Z,28.05
2023-02-13T00:27:20.286Z,28.65
2023-02-13T00:29:47.159Z,28.05
2023-02-13T00:32:14.833Z,28.77
2023-02-13T00:34:42.369Z,27.70
2023-02-13T00:37:09.058Z,29.50
2023-02-13T00:39:35.790Z,28.05
2023-02-13T00:42:02.508Z,30.60
2023-02-13T00:44:29.217Z,29.60
2023-02-13T00:46:55.870Z,32.92
2023-02-13T00:49:23.843Z,26.42
2023-02-13T00:51:50.489Z,30.02
2023-02-13T00:54:17.339Z,27.55
2023-02-13T00:56:44.295Z,34.60
2023-02-13T00:59:13.420Z,30.80
2023-02-13T01:01:40.166Z,30.25
2023-02-13T01:04:07.039Z,29.73
2023-02-13T01:06:33.849Z,29.30
2023-02-13T01:09:00.488Z,28.55
2023-02-13T01:11:27.230Z,36.92
2023-02-13T01:13:53.901Z,34.60
2023-02-13T01:16:20.827Z,34.08
2023-02-13T01:18:47.606Z,32.47
2023-02-13T01:21:19.694Z,30.55
2023-02-13T01:23:47.325Z,31.92
2023-02-13T01:26:21.824Z,32.90
2023-02-13T01:28:54.400Z,32.53
2023-02-13T01:31:21.953Z,32.17
2023-02-13T01:33:50.688Z,33.43
2023-02-13T01:36:21.228Z,37.53
2023-02-13T01:38:48.139Z,35.40
2023-02-13T01:41:15.427Z,32.15
2023-02-13T01:43:45.214Z,35.88
2023-02-13T01:46:15.268Z,31.63
2023-02-13T01:48:42.288Z,31.45
2023-02-13T01:51:14.205Z,30.95
2023-02-13T01:53:46.398Z,36.10
2023-02-13T01:56:24.662Z,34.25
2023-02-13T01:58:56.908Z,36.10
2023-02-13T02:01:26.382Z,34.22
2023-02-13T02:04:00.590Z,35.08
2023-02-13T02:06:35.628Z,34.63
2023-02-13T02:09:09.504Z,34.95
2023-02-13T02:11:58.247Z,36.60
2023-02-13T02:14:26.084Z,37.95
2023-02-13T02:16:55.874Z,40.88
2023-02-13T02:19:49.958Z,35.07
2023-02-13T02:23:00.246Z,39.28
2023-02-13T02:25:59.077Z,36.72
2023-02-13T02:28:31.729Z,42.95
2023-02-13T02:31:12.985Z,39.80
2023-02-13T02:34:00.928Z,39.47
2023-02-13T02:36:58.939Z,41.03
2023-02-13T02:39:29.618Z,42.47
2023-02-13T02:42:22.166Z,37.47
2023-02-13T02:45:08.515Z,41.13
2023-02-13T02:48:09.480Z,40.60
2023-02-13T02:50:53.396Z,42.65
2023-02-13T02:53:32.958Z,40.83
2023-02-13T02:56:20.428Z,43.97
2023-02-13T02:59:11.227Z,43.65
2023-02-13T03:01:57.700Z,48.58
2023-02-13T03:04:54.738Z,48.42
2023-02-13T03:07:21.494Z,47.38
2023-02-13T03:10:15.796Z,51.30
2023-02-13T03:13:10.882Z,48.90
2023-02-13T03:15:59.817Z,45.30
2023-02-13T03:18:45.842Z,52.28
2023-02-13T03:21:56.091Z,60.85
2023-02-13T03:24:41.723Z,53.33
2023-02-13T03:27:53.285Z,55.15
2023-02-13T03:30:22.947Z,53.90
2023-02-13T03:33:17.280Z,52.50
2023-02-13T03:36:20.229Z,63.95
2023-02-13T03:39:00.190Z,58.35
2023-02-13T03:41:39.049Z,57.72
2023-02-13T03:44:36.970Z,55.42
2023-02-13T03:47:06.815Z,55.03
2023-02-13T03:50:03.268Z,52.80
2023-02-13T03:52:38.441Z,55.03
2023-02-13T03:55:32.467Z,56.85
2023-02-13T03:58:26.149Z,56.67
2023-02-13T04:00:57.156Z,54.38
2023-02-13T04:03:57.372Z,59.00
2023-02-13T04:06:31.411Z,57.35
2023-02-13T04:08:58.381Z,62.47
2023-02-13T04:11:35.150Z,58.10
2023-02-13T04:14:08.559Z,63.38
2023-02-13T04:16:42.455Z,61.80
2023-02-13T04:19:11.098Z,60.15
2023-02-13T04:21:40.278Z,62.58
2023-02-13T04:24:08.039Z,58.95
2023-02-13T04:26:41.016Z,69.53
2023-02-13T04:29:08.387Z,66.40
2023-02-13T04:31:35.694Z,67.20
2023-02-13T04:34:02.825Z,65.15
2023-02-13T04:36:29.748Z,62.70
2023-02-13T04:38:56.590Z,72.45
2023-02-13T04:41:23.330Z,60.58
2023-02-13T04:43:52.298Z,63.63
2023-02-13T04:46:19.583Z,60.90
2023-02-13T04:48:46.274Z,63.65
2023-02-13T04:51:13.258Z,60.08
2023-02-13T04:53:40.081Z,64.75
2023-02-13T04:56:06.951Z,59.85
2023-02-13T04:58:33.626Z,57.88
2023-02-13T05:01:00.604Z,63.95
2023-02-13T05:03:27.524Z,57.75
2023-02-13T05:05:54.304Z,63.20
2023-02-13T05:08:21.044Z,67.50
2023-02-13T05:10:48.447Z,67.15
2023-02-13T05:13:16.562Z,58.53
2023-02-13T05:15:43.416Z,64.80
2023-02-13T05:18:10.166Z,62.85
2023-02-13T05:20:36.835Z,69.30
2023-02-13T05:23:21.996Z,63.47
2023-02-13T05:25:49.396Z,62.38
2023-02-13T05:28:35.554Z,68.45
2023-02-13T05:31:02.948Z,57.22
2023-02-13T05:33:29.781Z,59.42
2023-02-13T05:35:56.422Z,63.35
2023-02-13T05:38:23.138Z,66.43
2023-02-13T05:40:49.770Z,66.30
2023-02-13T05:43:16.495Z,52.92
2023-02-13T05:45:43.438Z,57.03
2023-02-13T05:48:10.186Z,60.63
2023-02-13T05:50:37.021Z,64.47
2023-02-13T05:53:03.692Z,64.85
2023-02-13T05:55:30.413Z,66.55
2023-02-13T05:57:58.216Z,66.85
2023-02-13T06:00:25.236Z,55.78
2023-02-13T06:02:52.143Z,62.58
2023-02-13T06:05:19.008Z,62.28
2023-02-13T06:07:45.764Z,62.17
2023-02-13T06:10:12.411Z,61.08
2023-02-13T06:12:39.054Z,64.65
2023-02-13T06:15:06.602Z,51.75
2023-02-13T06:17:33.284Z,57.65
2023-02-13T06:19:59.932Z,62.63
2023-02-13T06:22:26.574Z,60.35
2023-02-13T06:24:53.372Z,63.92
2023-02-13T06:27:20.034Z,61.30
2023-02-13T06:29:46.722Z,56.85
2023-02-13T06:32:13.822Z,61.10
2023-02-13T06:34:40.527Z,58.75
2023-02-13T06:37:07.229Z,57.47
2023-02-13T06:39:34.211Z,58.95
2023-02-13T06:42:04.681Z,60.20
2023-02-13T06:44:31.363Z,61.55
2023-02-13T06:46:58.006Z,62.65
2023-02-13T06:49:24.661Z,59.25
2023-02-13T06:51:51.507Z,62.50
2023-02-13T06:54:18.216Z,66.13
2023-02-13T06:56:44.991Z,63.13
2023-02-13T06:59:11.664Z,61.58
2023-02-13T07:01:38.539Z,57.20
2023-02-13T07:04:05.431Z,59.85
2023-02-13T07:06:33.473Z,65.10
2023-02-13T07:09:03.087Z,62.33
2023-02-13T07:11:30.274Z,63.55
2023-02-13T07:13:57.314Z,60.97
2023-02-13T07:16:24.084Z,65.43
2023-02-13T07:18:50.914Z,62.97
2023-02-13T07:21:17.621Z,70.85
2023-02-13T07:23:44.263Z,61.80
2023-02-13T07:26:11.195Z,66.30
2023-02-13T07:28:37.999Z,71.72
2023-02-13T07:31:05.986Z,70.28
2023-02-13T07:33:34.102Z,71.03
2023-02-13T07:36:03.467Z,61.13
2023-02-13T07:38:33.439Z,74.22
2023-02-13T07:41:01.645Z,70.53
2023-02-13T07:43:28.869Z,76.50
2023-02-13T07:45:59.988Z,82.25
2023-02-13T07:48:27.490Z,83.20
2023-02-13T07:50:55.565Z,88.18
2023-02-13T07:53:22.621Z,87.22
2023-02-13T07:55:49.441Z,87.82
2023-02-13T07:58:16.161Z,82.50
2023-02-13T08:00:42.865Z,87.20
2023-02-13T08:03:12.039Z,87.03
2023-02-13T08:05:39.380Z,78.97
2023-02-13T08:08:06.082Z,85.25
2023-02-13T08:10:51.332Z,80.97
2023-02-13T08:13:18.530Z,77.78
2023-02-13T08:15:45.402Z,69.40
2023-02-13T08:18:12.101Z,75.00
2023-02-13T08:20:40.061Z,69.50
2023-02-13T08:23:09.510Z,70.55
2023-02-13T08:25:38.557Z,67.57
2023-02-13T08:28:05.448Z,70.00
2023-02-13T08:30:32.206Z,65.70
2023-02-13T08:32:58.983Z,66.88
2023-02-13T08:35:29.442Z,61.47
2023-02-13T08:37:56.268Z,58.67
2023-02-13T08:40:24.541Z,54.78
2023-02-13T08:42:52.687Z,55.97
2023-02-13T08:45:19.411Z,49.03
2023-02-13T08:47:46.176Z,47.75
2023-02-13T08:50:12.815Z,42.85
2023-02-13T08:52:39.523Z,39.97
2023-02-13T08:55:06.422Z,37.20
2023-02-13T08:57:33.133Z,36.75
2023-02-13T08:59:59.860Z,32.50
2023-02-13T09:02:26.624Z,38.08
2023-02-13T09:04:53.358Z,36.40
2023-02-13T09:07:20.026Z,34.08
2023-02-13T09:09:46.719Z,31.63
2023-02-13T09:12:13.494Z,33.97
2023-02-13T09:14:40.322Z,32.92
2023-02-13T09:17:07.004Z,31.35
2023-02-13T09:19:33.812Z,33.70
2023-02-13T09:22:00.535Z,33.75
2023-02-13T09:24:27.250Z,28.55
2023-02-13T09:26:54.056Z,30.73
2023-02-13T09:29:20.804Z,30.38
2023-02-13T09:31:47.708Z,31.83
2023-02-13T09:34:14.832Z,29.42
2023-02-13T09:36:41.523Z,28.95
2023-02-13T09:39:09.214Z,27.90
2023-02-13T09:41:39.718Z,26.95
2023-02-13T09:44:06.626Z,28.33
2023-02-13T09:46:36.087Z,28.90
2023-02-13T09:49:11.332Z,29.02
2023-02-13T09:51:40.728Z,27.38
2023-02-13T09:54:08.642Z,25.02
2023-02-13T09:56:49.865Z,28.23
2023-02-13T09:59:48.223Z,29.60
2023-02-13T10:02:39.209Z,28.15
2023-02-13T10:05:40.000Z,30.70
2023-02-13T10:09:00.228Z,30.70
2023-02-13T10:12:11.905Z,29.88
2023-02-13T10:14:56.543Z,27.20
2023-02-13T10:17:39.339Z,24.83
2023-02-13T10:20:26.166Z,23.67
2023-02-13T10:22:59.955Z,23.73
2023-02-13T10:25:44.034Z,25.25
2023-02-13T10:28:17.449Z,25.13
2023-02-13T10:30:58.295Z,25.15
2023-02-13T10:33:34.271Z,26.30
2023-02-13T10:36:15.888Z,26.20
2023-02-13T10:38:49.306Z,25.50
2023-02-13T10:41:36.945Z,27.35
2023-02-13T10:44:15.776Z,26.83
2023-02-13T10:47:12.550Z,26.42
2023-02-13T10:50:05.154Z,25.33
2023-02-13T10:53:05.258Z,23.65
2023-02-13T10:55:31.884Z,27.77
2023-02-13T10:58:07.500Z,28.60
2023-02-13T11:00:52.781Z,27.20
2023-02-13T11:03:28.083Z,25.13
2023-02-13T11:05:57.150Z,24.00
2023-02-13T11:08:47.755Z,23.80
2023-02-13T11:11:35.587Z,26.80
2023-02-13T11:14:11.665Z,23.63
2023-02-13T11:16:50.202Z,23.40
2023-02-13T11:19:23.929Z,24.13
2023-02-13T11:21:57.840Z,22.58
2023-02-13T11:24:27.030Z,23.63
2023-02-13T11:26:59.882Z,27.88
2023-02-13T11:29:30.265Z,25.15
2023-02-13T11:32:03.437Z,22.70
2023-02-13T11:34:32.172Z,23.90
2023-02-13T11:37:20.928Z,23.35
2023-02-13T11:39:51.412Z,21.98
2023-02-13T11:42:21.415Z,22.60
2023-02-13T11:44:59.254Z,28.55
2023-02-13T11:47:41.889Z,23.13
2023-02-13T11:50:29.102Z,21.90
2023-02-13T11:53:04.684Z,24.98
2023-02-13T11:55:33.995Z,21.38
2023-02-13T11:58:22.413Z,21.02
2023-02-13T12:00:49.292Z,17.73
2023-02-13T12:03:29.903Z,20.13
2023-02-13T12:06:08.695Z,23.27
2023-02-13T12:08:37.749Z,23.40
2023-02-13T12:11:17.278Z,24.63
2023-02-13T12:13:45.614Z,21.52
2023-02-13T12:16:26.786Z,24.73
2023-02-13T12:18:58.549Z,22.10
2023-02-13T12:22:00.951Z,21.80
2023-02-13T12:27:52.864Z,24.25
2023-02-13T12:30:25.651Z,24.80
2023-02-13T12:33:04.411Z,19.73
2023-02-13T12:35:49.405Z,21.15
2023-02-13T12:38:24.849Z,22.40
2023-02-13T12:41:03.682Z,23.20
2023-02-13T12:43:54.506Z,20.30
2023-02-13T12:46:27.131Z,23.08
2023-02-13T12:48:59.776Z,20.85
2023-02-13T12:51:55.403Z,21.15
2023-02-13T12:54:35.302Z,20.63
2023-02-13T12:57:23.119Z,21.00
2023-02-13T13:00:12.846Z,22.42
2023-02-13T13:02:45.755Z,20.20
2023-02-13T13:05:30.799Z,20.73
2023-02-13T13:08:15.813Z,19.02
2023-02-13T13:11:16.966Z,21.55
2023-02-13T13:13:43.685Z,22.85
2023-02-13T13:16:30.776Z,21.48
2023-02-13T13:19:06.450Z,21.17
2023-02-13T13:22:06.216Z,20.50
2023-02-13T13:25:01.983Z,17.48
2023-02-13T13:27:33.006Z,21.55
2023-02-13T13:30:13.262Z,21.58
2023-02-13T13:32:41.464Z,20.17
2023-02-13T13:35:15.010Z,20.50
2023-02-13T13:38:02.471Z,18.15
2023-02-13T13:40:40.348Z,18.95
2023-02-13T13:43:19.732Z,21.60
2023-02-13T13:46:21.125Z,21.20
2023-02-13T13:49:22.836Z,19.67
2023-02-13T13:51:49.549Z,18.05
2023-02-13T13:54:16.280Z,21.48
2023-02-13T13:57:05.632Z,23.35
2023-02-13T13:59:38.462Z,20.33
2023-02-13T14:02:17.076Z,19.40
2023-02-13T14:05:21.422Z,20.88
2023-02-13T14:07:56.673Z,17.67
2023-02-13T14:10:26.286Z,23.55
2023-02-13T14:12:55.781Z,21.90
2023-02-13T14:15:34.462Z,21.65
2023-02-13T14:18:14.813Z,20.55
2023-02-13T14:20:50.642Z,19.63
2023-02-13T14:23:23.464Z,18.80
2023-02-13T14:25:51.024Z,20.75
2023-02-13T14:28:26.741Z,19.95
2023-02-13T14:31:12.108Z,17.63
2023-02-13T14:33:38.903Z,18.50
2023-02-13T14:36:19.905Z,17.50
2023-02-13T14:38:59.779Z,18.97
2023-02-13T14:41:56.502Z,16.77
2023-02-13T14:44:42.853Z,17.70
2023-02-13T14:47:23.890Z,17.08
2023-02-13T14:49:51.706Z,20.27
2023-02-13T14:52:26.260Z,19.77
2023-02-13T14:54:58.144Z,19.60
2023-02-13T14:57:50.521Z,20.85
2023-02-13T15:00:36.386Z,20.75
2023-02-13T15:03:11.337Z,18.65
2023-02-13T15:05:38.145Z,20.75
2023-02-13T15:08:22.428Z,18.98
2023-02-13T15:10:52.162Z,17.48
2023-02-13T15:13:33.164Z,16.60
2023-02-13T15:16:02.034Z,17.70
2023-02-13T15:18:33.412Z,21.42
2023-02-13T15:21:01.399Z,20.75
2023-02-13T15:23:31.161Z,19.70
2023-02-13T15:26:06.892Z,21.42
2023-02-13T15:28:35.355Z,22.35
2023-02-13T15:31:05.473Z,16.63
2023-02-13T15:33:50.404Z,23.58
2023-02-13T15:36:26.059Z,20.80
2023-02-13T15:39:00.435Z,18.33
2023-02-13T15:41:38.487Z,19.58
2023-02-13T15:44:05.570Z,18.58
2023-02-13T15:46:34.855Z,20.05
2023-02-13T15:49:06.615Z,21.05
2023-02-13T15:51:36.596Z,19.65
2023-02-13T15:54:29.289Z,17.98
2023-02-13T15:57:00.933Z,17.40
2023-02-13T16:01:59.903Z,15.93
2023-02-13T16:04:27.844Z,16.77
2023-02-13T16:06:56.546Z,18.33
2023-02-13T16:09:41.871Z,14.30
2023-02-13T16:12:34.883Z,19.10
2023-02-13T16:15:03.057Z,20.20
2023-02-13T16:17:39.689Z,19.33
2023-02-13T16:20:28.223Z,19.63
2023-02-13T16:23:15.394Z,17.17
2023-02-13T16:25:42.119Z,21.98
2023-02-13T16:28:27.169Z,20.20
2023-02-13T16:31:03.009Z,18.60
2023-02-13T16:33:32.105Z,21.55
2023-02-13T16:36:10.937Z,23.80
2023-02-13T16:38:42.491Z,23.77
2023-02-13T16:41:25.342Z,24.73
2023-02-13T16:43:52.021Z,22.55
2023-02-13T16:46:27.551Z,23.77
2023-02-13T16:48:59.685Z,22.38
2023-02-13T16:51:42.207Z,25.13
2023-02-13T16:54:11.720Z,22.13
2023-02-13T16:57:15.227Z,23.88
2023-02-13T16:59:47.685Z,23.65
2023-02-13T17:02:22.112Z,26.13
2023-02-13T17:04:53.719Z,24.75
2023-02-13T17:07:24.038Z,28.77
2023-02-13T17:09:55.898Z,32.72
2023-02-13T17:12:23.606Z,36.05
2023-02-13T17:14:50.687Z,29.40
2023-02-13T17:17:20.220Z,27.95
2023-02-13T17:19:47.792Z,28.98
2023-02-13T17:22:38.846Z,24.80
2023-02-13T17:25:25.281Z,37.70
2023-02-13T17:27:58.634Z,24.88
2023-02-13T17:30:28.673Z,30.77
2023-02-13T17:33:13.332Z,26.33
2023-02-13T17:35:40.186Z,25.98
2023-02-13T17:38:09.293Z,30.25
2023-02-13T17:40:36.636Z,26.55
2023-02-13T17:43:03.672Z,28.08
2023-02-13T17:45:32.958Z,27.92
2023-02-13T17:47:59.909Z,28.50
2023-02-13T17:50:28.812Z,37.83
2023-02-13T17:52:56.647Z,32.38
2023-02-13T17:55:26.542Z,29.63
2023-02-13T17:57:56.443Z,30.98
2023-02-13T18:00:25.254Z,27.80
2023-02-13T18:02:52.235Z,33.03
2023-02-13T18:05:22.281Z,30.33
2023-02-13T18:07:49.715Z,30.13
2023-02-13T18:10:25.596Z,31.88
2023-02-13T18:12:53.675Z,34.15
2023-02-13T18:15:20.939Z,32.38
2023-02-13T18:17:47.662Z,35.22
2023-02-13T18:20:17.146Z,36.72
2023-02-13T18:22:44.341Z,35.40
2023-02-13T18:25:12.136Z,33.55
2023-02-13T18:27:39.239Z,34.10
2023-02-13T18:30:07.233Z,36.15
2023-02-13T18:32:34.094Z,38.00
2023-02-13T18:35:01.189Z,34.53
2023-02-13T18:37:30.839Z,30.08
2023-02-13T18:39:57.605Z,34.05
2023-02-13T18:42:24.566Z,34.65
2023-02-13T18:44:51.902Z,32.97
2023-02-13T18:47:19.184Z,32.13
2023-02-13T18:49:46.403Z,41.75
2023-02-13T18:52:13.173Z,38.13
2023-02-13T18:54:40.109Z,51.63
2023-02-13T18:57:06.813Z,50.28
2023-02-13T18:59:33.438Z,49.47
2023-02-13T19:02:01.222Z,47.72
2023-02-13T19:04:28.787Z,44.92
2023-02-13T19:06:55.488Z,47.50
2023-02-13T19:09:30.830Z,42.66
2023-02-13T19:11:57.534Z,46.17
2023-02-13T19:14:25.822Z,54.13
2023-02-13T19:16:53.147Z,80.55
2023-02-13T19:19:19.801Z,60.63
2023-02-13T19:21:46.438Z,55.47
2023-02-13T19:24:15.261Z,46.85
2023-02-13T19:26:42.522Z,45.42
2023-02-13T19:29:09.278Z,61.25
2023-02-13T19:31:36.434Z,50.83
2023-02-13T19:34:05.578Z,52.92
2023-02-13T19:36:32.503Z,48.80
2023-02-13T19:39:02.665Z,42.25
2023-02-13T19:41:29.915Z,46.17
2023-02-13T19:43:56.842Z,37.40
2023-02-13T19:46:26.793Z,35.72
2023-02-13T19:48:53.907Z,40.10
2023-02-13T19:51:24.130Z,39.50
2023-02-13T19:53:58.235Z,39.00
2023-02-13T19:56:27.168Z,40.13
2023-02-13T19:58:53.987Z,45.10
2023-02-13T20:01:23.041Z,37.45
2023-02-13T20:03:50.299Z,36.10
2023-02-13T20:06:20.698Z,35.58
2023-02-13T20:08:47.872Z,32.60
2023-02-13T20:11:20.273Z,27.88
2023-02-13T20:13:47.088Z,27.15
2023-02-13T20:16:16.702Z,27.80
2023-02-13T20:18:43.437Z,29.08
2023-02-13T20:21:15.493Z,22.90
2023-02-13T20:23:43.272Z,23.27
2023-02-13T20:26:13.813Z,26.02
2023-02-13T20:28:41.481Z,27.23
2023-02-13T20:31:10.877Z,25.55
2023-02-13T20:33:39.375Z,26.88
2023-02-13T20:36:23.880Z,26.10
2023-02-13T20:38:53.842Z,23.58
2023-02-13T20:41:23.779Z,25.00
2023-02-13T20:43:51.637Z,24.30
2023-02-13T20:46:19.073Z,25.33
2023-02-13T20:48:47.539Z,25.38
2023-02-13T20:51:16.335Z,20.20
2023-02-13T20:53:43.772Z,20.50
2023-02-13T20:56:13.349Z,21.00
2023-02-13T20:58:41.315Z,21.85
2023-02-13T21:01:17.338Z,21.48
2023-02-13T21:03:44.664Z,20.13
2023-02-13T21:06:11.718Z,20.55
2023-02-13T21:08:38.458Z,24.77
2023-02-13T21:11:07.459Z,20.73
2023-02-13T21:13:35.444Z,22.02
2023-02-13T21:16:17.425Z,20.65
2023-02-13T21:18:46.871Z,22.02
2023-02-13T21:21:13.778Z,19.92
2023-02-13T21:23:40.761Z,24.35
2023-02-13T21:26:13.534Z,20.80
2023-02-13T21:28:41.167Z,22.20
2023-02-13T21:31:17.668Z,23.45
2023-02-13T21:33:44.775Z,24.05
2023-02-13T21:36:12.864Z,21.55
2023-02-13T21:38:40.554Z,22.33
2023-02-13T21:41:13.410Z,21.48
2023-02-13T21:43:42.143Z,22.67
2023-02-13T21:46:11.258Z,20.83
2023-02-13T21:48:38.518Z,21.55
2023-02-13T21:51:11.071Z,25.60
2023-02-13T21:53:38.297Z,26.45
2023-02-13T21:56:15.526Z,24.40
2023-02-13T21:58:43.836Z,26.08
2023-02-13T22:01:26.098Z,23.00
2023-02-13T22:03:54.872Z,19.30
2023-02-13T22:06:21.839Z,20.83
2023-02-13T22:08:49.145Z,23.08
2023-02-13T22:11:18.390Z,23.02
2023-02-13T22:13:45.215Z,23.20
2023-02-13T22:16:14.555Z,19.08
2023-02-13T22:18:45.261Z,23.75
2023-02-13T22:21:14.459Z,22.42
2023-02-13T22:23:43.127Z,21.77
2023-02-13T22:26:23.220Z,22.95
2023-02-13T22:28:50.514Z,22.70
2023-02-13T22:31:18.300Z,21.55
2023-02-13T22:33:49.794Z,24.58
2023-02-13T22:38:44.636Z,20.50
2023-02-13T22:41:16.906Z,20.95
2023-02-13T22:43:43.677Z,23.25
2023-02-13T22:46:15.928Z,22.23
2023-02-13T22:48:45.983Z,23.98
2023-02-13T22:51:15.629Z,23.45
2023-02-13T22:53:42.762Z,24.40
2023-02-13T22:56:10.736Z,23.23
2023-02-13T22:58:38.071Z,26.40
2023-02-13T23:01:16.374Z,20.92
2023-02-13T23:03:43.405Z,28.10
2023-02-13T23:06:11.495Z,25.60
2023-02-13T23:08:38.982Z,24.00
2023-02-13T23:11:30.389Z,20.73
2023-02-13T23:13:57.219Z,21.85
2023-02-13T23:16:24.277Z,24.48
2023-02-13T23:18:52.700Z,24.90
2023-02-13T23:21:19.836Z,24.92
2023-02-13T23:23:46.956Z,21.27
2023-02-13T23:26:13.919Z,22.88
2023-02-13T23:28:40.804Z,22.52
2023-02-13T23:31:07.541Z,22.98
2023-02-13T23:33:34.282Z,21.38
2023-02-13T23:36:00.935Z,26.60
2023-02-13T23:38:27.737Z,23.85
2023-02-13T23:40:54.382Z,23.20
2023-02-13T23:43:21.099Z,22.00
2023-02-13T23:45:47.833Z,25.50
2023-02-13T23:48:14.656Z,25.75
2023-02-13T23:50:41.375Z,23.77
2023-02-13T23:53:08.153Z,27.67
2023-02-13T23:55:34.872Z,23.60
2023-02-13T23:58:01.577Z,26.17
